sensor_id;sensor_type;location;lat;lon;timestamp;pressure;altitude;pressure_sealevel;temperature;humidity
11682;BME280;5897;42.640;23.310;2023-07-13T00:01:47;94194.69;;;23.72;58.67
11682;BME280;5897;42.640;23.310;2023-07-13T00:04:16;94192.69;;;23.67;57.93
11682;BME280;5897;42.640;23.310;2023-07-13T00:06:43;94176.44;;;23.41;59.85
11682;BME280;5897;42.640;23.310;2023-07-13T00:09:11;94181.44;;;23.48;58.61
11682;BME280;5897;42.640;23.310;2023-07-13T00:11:39;94187.72;;;23.43;59.50
11682;BME280;5897;42.640;23.310;2023-07-13T00:14:06;94167.91;;;23.34;59.24
11682;BME280;5897;42.640;23.310;2023-07-13T00:16:35;94181.22;;;23.41;59.58
11682;BME280;5897;42.640;23.310;2023-07-13T00:19:02;94177.94;;;23.37;59.39
11682;BME280;5897;42.640;23.310;2023-07-13T00:21:29;94177.66;;;23.46;59.15
11682;BME280;5897;42.640;23.310;2023-07-13T00:23:56;94172.66;;;23.50;59.15
11682;BME280;5897;42.640;23.310;2023-07-13T00:26:23;94168.66;;;23.51;59.25
11682;BME280;5897;42.640;23.310;2023-07-13T00:28:50;94172.91;;;23.57;59.51
11682;BME280;5897;42.640;23.310;2023-07-13T00:31:17;94169.94;;;23.33;60.82
11682;BME280;5897;42.640;23.310;2023-07-13T00:33:45;94164.41;;;23.33;60.76
11682;BME280;5897;42.640;23.310;2023-07-13T00:36:12;94170.44;;;23.32;60.67
11682;BME280;5897;42.640;23.310;2023-07-13T00:38:40;94172.94;;;23.41;60.55
11682;BME280;5897;42.640;23.310;2023-07-13T00:41:06;94168.66;;;23.45;59.95
11682;BME280;5897;42.640;23.310;2023-07-13T00:43:33;94172.69;;;23.33;60.76
11682;BME280;5897;42.640;23.310;2023-07-13T00:46:25;94166.16;;;23.20;61.95
11682;BME280;5897;42.640;23.310;2023-07-13T00:48:56;94167.44;;;23.19;62.06
11682;BME280;5897;42.640;23.310;2023-07-13T00:51:28;94150.38;;;23.09;61.57
11682;BME280;5897;42.640;23.310;2023-07-13T00:53:59;94178.19;;;23.28;61.61
11682;BME280;5897;42.640;23.310;2023-07-13T00:56:27;94176.19;;;23.23;62.96
11682;BME280;5897;42.640;23.310;2023-07-13T00:58:55;94169.16;;;23.05;63.31
11682;BME280;5897;42.640;23.310;2023-07-13T01:01:22;94161.13;;;22.91;64.20
11682;BME280;5897;42.640;23.310;2023-07-13T01:03:49;94158.34;;;22.80;64.34
11682;BME280;5897;42.640;23.310;2023-07-13T01:06:18;94154.84;;;22.74;64.79
11682;BME280;5897;42.640;23.310;2023-07-13T01:08:44;94159.34;;;22.77;65.30
11682;BME280;5897;42.640;23.310;2023-07-13T01:11:11;94147.06;;;22.72;65.51
11682;BME280;5897;42.640;23.310;2023-07-13T01:13:38;94158.59;;;22.82;65.31
11682;BME280;5897;42.640;23.310;2023-07-13T01:16:13;94156.09;;;22.89;65.30
11682;BME280;5897;42.640;23.310;2023-07-13T01:18:41;94161.38;;;22.98;65.58
11682;BME280;5897;42.640;23.310;2023-07-13T01:21:09;94160.38;;;22.96;66.10
11682;BME280;5897;42.640;23.310;2023-07-13T01:23:36;94162.63;;;22.92;66.73
11682;BME280;5897;42.640;23.310;2023-07-13T01:26:02;94150.34;;;22.76;66.77
11682;BME280;5897;42.640;23.310;2023-07-13T01:28:29;94150.81;;;22.75;66.35
11682;BME280;5897;42.640;23.310;2023-07-13T01:30:58;94148.81;;;22.70;65.34
11682;BME280;5897;42.640;23.310;2023-07-13T01:33:26;94143.56;;;22.61;66.16
11682;BME280;5897;42.640;23.310;2023-07-13T01:35:52;94155.34;;;22.67;64.86
11682;BME280;5897;42.640;23.310;2023-07-13T01:38:22;94147.31;;;22.74;64.41
11682;BME280;5897;42.640;23.310;2023-07-13T01:40:51;94151.59;;;22.81;64.70
11682;BME280;5897;42.640;23.310;2023-07-13T01:43:18;94142.06;;;22.76;65.40
11682;BME280;5897;42.640;23.310;2023-07-13T01:45:45;94152.59;;;22.78;64.66
11682;BME280;5897;42.640;23.310;2023-07-13T01:48:12;94150.81;;;22.75;65.28
11682;BME280;5897;42.640;23.310;2023-07-13T01:50:39;94147.56;;;22.82;65.48
11682;BME280;5897;42.640;23.310;2023-07-13T01:53:06;94149.31;;;22.74;67.29
11682;BME280;5897;42.640;23.310;2023-07-13T01:55:35;94154.81;;;22.68;66.98
11682;BME280;5897;42.640;23.310;2023-07-13T01:58:03;94147.56;;;22.71;66.75
11682;BME280;5897;42.640;23.310;2023-07-13T02:00:30;94153.06;;;22.71;67.06
11682;BME280;5897;42.640;23.310;2023-07-13T02:02:57;94148.84;;;22.75;66.45
11682;BME280;5897;42.640;23.310;2023-07-13T02:05:24;94153.09;;;22.76;66.87
11682;BME280;5897;42.640;23.310;2023-07-13T02:07:51;94160.56;;;22.59;68.08
11682;BME280;5897;42.640;23.310;2023-07-13T02:10:18;94155.56;;;22.58;68.25
11682;BME280;5897;42.640;23.310;2023-07-13T02:12:48;94157.47;;;22.41;68.51
11682;BME280;5897;42.640;23.310;2023-07-13T02:15:15;94155.53;;;22.47;68.84
11682;BME280;5897;42.640;23.310;2023-07-13T02:17:42;94162.19;;;22.29;69.97
11682;BME280;5897;42.640;23.310;2023-07-13T02:20:09;94164.94;;;22.24;70.52
11682;BME280;5897;42.640;23.310;2023-07-13T02:22:36;94146.94;;;22.23;70.49
11682;BME280;5897;42.640;23.310;2023-07-13T02:25:03;94153.44;;;22.31;70.13
11682;BME280;5897;42.640;23.310;2023-07-13T02:27:30;94160.97;;;22.36;70.83
11682;BME280;5897;42.640;23.310;2023-07-13T02:29:58;94167.69;;;22.29;70.98
11682;BME280;5897;42.640;23.310;2023-07-13T02:32:25;94176.72;;;22.30;70.95
11682;BME280;5897;42.640;23.310;2023-07-13T02:34:51;94170.44;;;22.29;71.08
11682;BME280;5897;42.640;23.310;2023-07-13T02:37:19;94174.88;;;22.10;72.41
11682;BME280;5897;42.640;23.310;2023-07-13T02:39:46;94168.13;;;22.11;71.89
11682;BME280;5897;42.640;23.310;2023-07-13T02:42:14;94168.19;;;22.22;72.02
11682;BME280;5897;42.640;23.310;2023-07-13T02:44:40;94172.41;;;22.18;72.42
11682;BME280;5897;42.640;23.310;2023-07-13T02:47:09;94170.88;;;22.06;72.71
11682;BME280;5897;42.640;23.310;2023-07-13T02:49:35;94170.41;;;22.13;71.48
11682;BME280;5897;42.640;23.310;2023-07-13T02:52:03;94164.16;;;22.18;71.40
11682;BME280;5897;42.640;23.310;2023-07-13T02:54:30;94175.91;;;22.13;72.63
11682;BME280;5897;42.640;23.310;2023-07-13T02:56:56;94164.34;;;22.03;72.25
11682;BME280;5897;42.640;23.310;2023-07-13T02:59:23;94169.09;;;21.97;72.95
11682;BME280;5897;42.640;23.310;2023-07-13T03:01:50;94173.03;;;21.91;72.90
11682;BME280;5897;42.640;23.310;2023-07-13T03:04:18;94166.53;;;21.88;73.28
11682;BME280;5897;42.640;23.310;2023-07-13T03:06:45;94171.06;;;21.91;72.89
11682;BME280;5897;42.640;23.310;2023-07-13T03:09:12;94175.78;;;21.85;73.62
11682;BME280;5897;42.640;23.310;2023-07-13T03:11:39;94176.03;;;21.87;73.60
11682;BME280;5897;42.640;23.310;2023-07-13T03:14:07;94185.34;;;22.01;73.75
11682;BME280;5897;42.640;23.310;2023-07-13T03:16:34;94168.31;;;21.97;74.52
11682;BME280;5897;42.640;23.310;2023-07-13T03:19:01;94181.81;;;21.95;74.29
11682;BME280;5897;42.640;23.310;2023-07-13T03:21:29;94184.03;;;21.91;75.71
11682;BME280;5897;42.640;23.310;2023-07-13T03:23:56;94186.31;;;21.92;75.76
11682;BME280;5897;42.640;23.310;2023-07-13T03:26:23;94182.31;;;21.93;76.09
11682;BME280;5897;42.640;23.310;2023-07-13T03:28:50;94181.63;;;22.04;76.83
11682;BME280;5897;42.640;23.310;2023-07-13T03:31:18;94192.34;;;22.02;77.10
11682;BME280;5897;42.640;23.310;2023-07-13T03:33:46;94188.63;;;22.05;77.62
11682;BME280;5897;42.640;23.310;2023-07-13T03:36:15;94193.41;;;22.10;77.25
11682;BME280;5897;42.640;23.310;2023-07-13T03:38:46;94186.19;;;22.18;76.96
11682;BME280;5897;42.640;23.310;2023-07-13T03:41:14;94194.44;;;22.23;78.50
11682;BME280;5897;42.640;23.310;2023-07-13T03:43:41;94189.72;;;22.24;79.02
11682;BME280;5897;42.640;23.310;2023-07-13T03:46:08;94188.44;;;22.25;80.30
11682;BME280;5897;42.640;23.310;2023-07-13T03:48:34;94188.44;;;22.25;80.41
11682;BME280;5897;42.640;23.310;2023-07-13T03:51:05;94190.97;;;22.23;80.36
11682;BME280;5897;42.640;23.310;2023-07-13T03:53:32;94189.72;;;22.29;80.53
11682;BME280;5897;42.640;23.310;2023-07-13T03:56:00;94189.50;;;22.33;80.19
11682;BME280;5897;42.640;23.310;2023-07-13T03:58:30;94184.25;;;22.40;79.69
11682;BME280;5897;42.640;23.310;2023-07-13T04:00:57;94173.25;;;22.40;79.34
11682;BME280;5897;42.640;23.310;2023-07-13T04:03:25;94191.09;;;22.56;78.71
11682;BME280;5897;42.640;23.310;2023-07-13T04:05:54;94191.88;;;22.67;78.67
11682;BME280;5897;42.640;23.310;2023-07-13T04:08:25;94194.91;;;22.75;77.83
11682;BME280;5897;42.640;23.310;2023-07-13T04:10:53;94184.66;;;22.75;77.42
11682;BME280;5897;42.640;23.310;2023-07-13T04:13:21;94179.13;;;22.81;77.50
11682;BME280;5897;42.640;23.310;2023-07-13T04:15:48;94182.66;;;22.87;78.18
11682;BME280;5897;42.640;23.310;2023-07-13T04:18:15;94177.91;;;22.93;78.51
11682;BME280;5897;42.640;23.310;2023-07-13T04:20:42;94177.38;;;23.00;78.61
11682;BME280;5897;42.640;23.310;2023-07-13T04:23:08;94178.66;;;23.10;79.16
11682;BME280;5897;42.640;23.310;2023-07-13T04:25:35;94185.41;;;23.14;80.18
11682;BME280;5897;42.640;23.310;2023-07-13T04:28:03;94185.72;;;23.22;80.51
11682;BME280;5897;42.640;23.310;2023-07-13T04:30:31;94187.94;;;23.29;79.83
11682;BME280;5897;42.640;23.310;2023-07-13T04:32:58;94195.22;;;23.32;79.64
11682;BME280;5897;42.640;23.310;2023-07-13T04:35:25;94199.50;;;23.38;80.14
11682;BME280;5897;42.640;23.310;2023-07-13T04:37:52;94186.94;;;23.37;78.55
11682;BME280;5897;42.640;23.310;2023-07-13T04:40:20;94199.97;;;23.53;77.08
11682;BME280;5897;42.640;23.310;2023-07-13T04:42:46;94204.75;;;23.64;75.94
11682;BME280;5897;42.640;23.310;2023-07-13T04:45:14;94212.28;;;23.69;76.59
11682;BME280;5897;42.640;23.310;2023-07-13T04:47:43;94210.75;;;23.73;76.72
11682;BME280;5897;42.640;23.310;2023-07-13T04:50:12;94208.22;;;23.75;75.98
11682;BME280;5897;42.640;23.310;2023-07-13T04:52:40;94207.75;;;23.77;75.77
11682;BME280;5897;42.640;23.310;2023-07-13T04:55:08;94216.25;;;23.79;75.74
11682;BME280;5897;42.640;23.310;2023-07-13T04:57:35;94218.00;;;23.87;75.83
11682;BME280;5897;42.640;23.310;2023-07-13T05:00:02;94202.69;;;23.86;75.32
11682;BME280;5897;42.640;23.310;2023-07-13T05:02:32;94218.25;;;23.95;75.89
11682;BME280;5897;42.640;23.310;2023-07-13T05:05:01;94212.72;;;24.06;76.18
11682;BME280;5897;42.640;23.310;2023-07-13T05:07:29;94218.72;;;24.21;76.65
11682;BME280;5897;42.640;23.310;2023-07-13T05:09:56;94221.91;;;24.36;78.36
11682;BME280;5897;42.640;23.310;2023-07-13T05:12:23;94228.38;;;24.55;77.07
11682;BME280;5897;42.640;23.310;2023-07-13T05:14:50;94222.28;;;24.73;75.08
11682;BME280;5897;42.640;23.310;2023-07-13T05:17:16;94221.19;;;24.87;73.44
11682;BME280;5897;42.640;23.310;2023-07-13T05:19:43;94235.44;;;25.02;73.19
11682;BME280;5897;42.640;23.310;2023-07-13T05:22:12;94235.84;;;25.17;71.77
11682;BME280;5897;42.640;23.310;2023-07-13T05:24:38;94232.50;;;25.29;69.91
11682;BME280;5897;42.640;23.310;2023-07-13T05:27:05;94235.19;;;25.40;68.21
11682;BME280;5897;42.640;23.310;2023-07-13T05:29:32;94232.72;;;25.37;67.82
11682;BME280;5897;42.640;23.310;2023-07-13T05:31:59;94235.78;;;25.28;67.00
11682;BME280;5897;42.640;23.310;2023-07-13T05:34:26;94237.31;;;25.29;66.58
11682;BME280;5897;42.640;23.310;2023-07-13T05:36:53;94240.00;;;25.40;65.57
11682;BME280;5897;42.640;23.310;2023-07-13T05:39:21;94245.19;;;25.49;66.24
11682;BME280;5897;42.640;23.310;2023-07-13T05:41:48;94242.19;;;25.47;65.19
11682;BME280;5897;42.640;23.310;2023-07-13T05:44:14;94242.34;;;25.60;64.28
11682;BME280;5897;42.640;23.310;2023-07-13T05:46:41;94235.81;;;25.57;62.85
11682;BME280;5897;42.640;23.310;2023-07-13T05:49:08;94249.84;;;25.65;63.88
11682;BME280;5897;42.640;23.310;2023-07-13T05:51:35;94238.59;;;25.87;63.69
11682;BME280;5897;42.640;23.310;2023-07-13T05:54:01;94237.81;;;25.86;62.68
11682;BME280;5897;42.640;23.310;2023-07-13T05:56:30;94236.78;;;25.95;61.01
11682;BME280;5897;42.640;23.310;2023-07-13T05:58:57;94243.00;;;26.01;61.73
11682;BME280;5897;42.640;23.310;2023-07-13T06:01:23;94236.56;;;26.17;62.82
11682;BME280;5897;42.640;23.310;2023-07-13T06:03:50;94244.28;;;26.24;62.67
11682;BME280;5897;42.640;23.310;2023-07-13T06:06:17;94230.44;;;26.24;63.82
11682;BME280;5897;42.640;23.310;2023-07-13T06:08:44;94218.31;;;26.27;64.21
11682;BME280;5897;42.640;23.310;2023-07-13T06:11:15;94219.09;;;26.46;60.81
11682;BME280;5897;42.640;23.310;2023-07-13T06:13:44;94219.75;;;26.57;57.34
11682;BME280;5897;42.640;23.310;2023-07-13T06:16:13;94230.41;;;26.72;58.05
11682;BME280;5897;42.640;23.310;2023-07-13T06:18:40;94239.88;;;26.82;58.84
11682;BME280;5897;42.640;23.310;2023-07-13T06:21:08;94242.03;;;26.89;59.40
11682;BME280;5897;42.640;23.310;2023-07-13T06:23:35;94251.41;;;27.04;60.03
11682;BME280;5897;42.640;23.310;2023-07-13T06:26:02;94250.50;;;27.15;58.79
11682;BME280;5897;42.640;23.310;2023-07-13T06:28:29;94245.56;;;27.26;60.53
11682;BME280;5897;42.640;23.310;2023-07-13T06:30:58;94243.09;;;27.23;61.70
11682;BME280;5897;42.640;23.310;2023-07-13T06:33:25;94244.13;;;27.38;60.81
11682;BME280;5897;42.640;23.310;2023-07-13T06:35:53;94241.81;;;27.42;62.65
11682;BME280;5897;42.640;23.310;2023-07-13T06:38:20;94240.34;;;27.54;60.70
11682;BME280;5897;42.640;23.310;2023-07-13T06:40:47;94240.03;;;27.58;63.78
11682;BME280;5897;42.640;23.310;2023-07-13T06:43:14;94237.09;;;27.69;62.54
11682;BME280;5897;42.640;23.310;2023-07-13T06:45:42;94232.50;;;27.71;61.71
11682;BME280;5897;42.640;23.310;2023-07-13T06:48:12;94238.34;;;27.86;60.49
11682;BME280;5897;42.640;23.310;2023-07-13T06:50:39;94235.69;;;27.94;59.38
11682;BME280;5897;42.640;23.310;2023-07-13T06:53:06;94225.00;;;27.98;57.43
11682;BME280;5897;42.640;23.310;2023-07-13T06:55:33;94232.28;;;28.01;58.03
11682;BME280;5897;42.640;23.310;2023-07-13T06:58:00;94228.66;;;28.06;59.61
11682;BME280;5897;42.640;23.310;2023-07-13T07:00:27;94220.56;;;28.08;58.72
11682;BME280;5897;42.640;23.310;2023-07-13T07:02:53;94233.59;;;28.26;59.24
11682;BME280;5897;42.640;23.310;2023-07-13T07:05:22;94228.47;;;28.30;58.51
11682;BME280;5897;42.640;23.310;2023-07-13T07:07:50;94235.69;;;28.38;57.53
11682;BME280;5897;42.640;23.310;2023-07-13T07:10:17;94242.84;;;28.47;57.61
11682;BME280;5897;42.640;23.310;2023-07-13T07:12:45;94237.91;;;28.40;58.34
11682;BME280;5897;42.640;23.310;2023-07-13T07:15:13;94237.47;;;28.49;56.84
11682;BME280;5897;42.640;23.310;2023-07-13T07:17:40;94240.03;;;28.60;57.17
11682;BME280;5897;42.640;23.310;2023-07-13T07:20:07;94234.25;;;28.58;55.80
11682;BME280;5897;42.640;23.310;2023-07-13T07:22:36;94235.75;;;28.72;56.54
11682;BME280;5897;42.640;23.310;2023-07-13T07:25:03;94243.97;;;28.77;55.63
11682;BME280;5897;42.640;23.310;2023-07-13T07:27:30;94236.69;;;28.87;56.19
11682;BME280;5897;42.640;23.310;2023-07-13T07:29:57;94225.56;;;29.00;56.47
11682;BME280;5897;42.640;23.310;2023-07-13T07:32:24;94228.88;;;29.12;54.15
11682;BME280;5897;42.640;23.310;2023-07-13T07:34:51;94226.53;;;29.03;54.18
11682;BME280;5897;42.640;23.310;2023-07-13T07:37:17;94232.50;;;29.07;54.46
11682;BME280;5897;42.640;23.310;2023-07-13T07:39:46;94223.50;;;29.14;53.36
11682;BME280;5897;42.640;23.310;2023-07-13T07:42:12;94220.13;;;29.28;53.74
11682;BME280;5897;42.640;23.310;2023-07-13T07:44:40;94220.88;;;29.29;53.55
11682;BME280;5897;42.640;23.310;2023-07-13T07:47:07;94220.38;;;29.51;54.25
11682;BME280;5897;42.640;23.310;2023-07-13T07:49:34;94204.59;;;29.66;52.32
11682;BME280;5897;42.640;23.310;2023-07-13T07:52:01;94216.44;;;29.46;53.12
11682;BME280;5897;42.640;23.310;2023-07-13T07:54:28;94213.22;;;29.76;52.26
11682;BME280;5897;42.640;23.310;2023-07-13T07:56:56;94210.34;;;29.89;52.26
11682;BME280;5897;42.640;23.310;2023-07-13T07:59:23;94216.41;;;29.80;51.92
11682;BME280;5897;42.640;23.310;2023-07-13T08:01:50;94209.59;;;29.88;53.52
11682;BME280;5897;42.640;23.310;2023-07-13T08:20:01;94164.66;;;30.40;51.39
11682;BME280;5897;42.640;23.310;2023-07-13T08:22:28;94145.66;;;30.31;49.63
11682;BME280;5897;42.640;23.310;2023-07-13T08:24:54;94186.53;;;31.00;50.34
11682;BME280;5897;42.640;23.310;2023-07-13T08:27:21;94181.13;;;31.02;46.91
11682;BME280;5897;42.640;23.310;2023-07-13T08:29:49;94175.22;;;31.13;47.56
11682;BME280;5897;42.640;23.310;2023-07-13T08:32:16;94177.34;;;31.35;47.14
11682;BME280;5897;42.640;23.310;2023-07-13T08:34:44;94179.25;;;31.47;47.17
11682;BME280;5897;42.640;23.310;2023-07-13T08:37:12;94182.56;;;31.38;47.27
11682;BME280;5897;42.640;23.310;2023-07-13T08:39:39;94179.06;;;31.60;46.18
11682;BME280;5897;42.640;23.310;2023-07-13T08:42:11;94174.03;;;31.66;45.96
11682;BME280;5897;42.640;23.310;2023-07-13T08:45:00;94170.75;;;31.83;48.03
11682;BME280;5897;42.640;23.310;2023-07-13T08:47:32;94169.06;;;31.95;46.60
11682;BME280;5897;42.640;23.310;2023-07-13T08:50:03;94168.47;;;31.96;47.36
11682;BME280;5897;42.640;23.310;2023-07-13T08:52:36;94170.56;;;32.03;46.29
11682;BME280;5897;42.640;23.310;2023-07-13T08:55:09;94166.63;;;32.29;44.49
11682;BME280;5897;42.640;23.310;2023-07-13T08:57:41;94178.94;;;32.33;44.38
11682;BME280;5897;42.640;23.310;2023-07-13T09:00:10;94173.84;;;32.54;43.66
11682;BME280;5897;42.640;23.310;2023-07-13T09:02:42;94187.22;;;32.71;42.49
11682;BME280;5897;42.640;23.310;2023-07-13T09:05:14;94178.09;;;32.78;42.65
11682;BME280;5897;42.640;23.310;2023-07-13T09:07:58;94188.09;;;32.96;42.56
11682;BME280;5897;42.640;23.310;2023-07-13T09:10:30;94195.50;;;33.08;40.93
11682;BME280;5897;42.640;23.310;2023-07-13T09:13:10;94203.28;;;33.25;40.50
11682;BME280;5897;42.640;23.310;2023-07-13T09:15:44;94209.53;;;33.48;37.61
11682;BME280;5897;42.640;23.310;2023-07-13T09:18:15;94202.50;;;33.64;38.38
11682;BME280;5897;42.640;23.310;2023-07-13T09:20:47;94200.22;;;33.77;37.30
11682;BME280;5897;42.640;23.310;2023-07-13T09:23:19;94208.34;;;33.90;35.84
11682;BME280;5897;42.640;23.310;2023-07-13T09:25:47;94196.84;;;34.03;37.86
11682;BME280;5897;42.640;23.310;2023-07-13T09:28:24;94187.72;;;34.20;39.79
11682;BME280;5897;42.640;23.310;2023-07-13T09:30:56;94208.19;;;34.54;38.09
11682;BME280;5897;42.640;23.310;2023-07-13T09:33:25;94204.41;;;34.59;36.73
11682;BME280;5897;42.640;23.310;2023-07-13T09:35:54;94198.63;;;34.74;37.42
11682;BME280;5897;42.640;23.310;2023-07-13T09:38:26;94207.66;;;34.90;37.61
11682;BME280;5897;42.640;23.310;2023-07-13T09:41:04;94199.91;;;34.81;35.96
11682;BME280;5897;42.640;23.310;2023-07-13T09:43:36;94185.91;;;35.07;36.30
11682;BME280;5897;42.640;23.310;2023-07-13T09:46:03;94191.00;;;35.35;34.76
11682;BME280;5897;42.640;23.310;2023-07-13T09:48:34;94186.78;;;35.44;34.32
11682;BME280;5897;42.640;23.310;2023-07-13T09:51:07;94190.72;;;35.58;33.37
11682;BME280;5897;42.640;23.310;2023-07-13T09:53:43;94166.19;;;35.68;32.88
11682;BME280;5897;42.640;23.310;2023-07-13T09:56:19;94169.59;;;35.66;32.27
11682;BME280;5897;42.640;23.310;2023-07-13T09:58:46;94167.47;;;35.84;33.35
11682;BME280;5897;42.640;23.310;2023-07-13T10:01:13;94161.53;;;35.80;33.62
11682;BME280;5897;42.640;23.310;2023-07-13T10:03:51;94164.88;;;36.05;32.24
11682;BME280;5897;42.640;23.310;2023-07-13T10:06:20;94156.22;;;36.20;30.21
11682;BME280;5897;42.640;23.310;2023-07-13T10:08:50;94147.88;;;36.12;32.11
11682;BME280;5897;42.640;23.310;2023-07-13T10:11:19;94139.06;;;36.25;34.30
11682;BME280;5897;42.640;23.310;2023-07-13T10:13:51;94135.81;;;36.48;33.63
11682;BME280;5897;42.640;23.310;2023-07-13T10:16:19;94136.00;;;36.59;31.57
11682;BME280;5897;42.640;23.310;2023-07-13T10:18:48;94137.72;;;36.36;33.11
11682;BME280;5897;42.640;23.310;2023-07-13T10:21:18;94138.06;;;36.68;31.47
11682;BME280;5897;42.640;23.310;2023-07-13T10:23:50;94140.47;;;36.91;30.68
11682;BME280;5897;42.640;23.310;2023-07-13T10:26:21;94125.19;;;37.03;29.37
11682;BME280;5897;42.640;23.310;2023-07-13T10:28:52;94130.66;;;37.30;30.47
11682;BME280;5897;42.640;23.310;2023-07-13T10:31:22;94129.94;;;37.10;30.42
11682;BME280;5897;42.640;23.310;2023-07-13T10:33:50;94130.28;;;37.45;31.50
11682;BME280;5897;42.640;23.310;2023-07-13T10:36:28;94119.88;;;37.57;27.94
11682;BME280;5897;42.640;23.310;2023-07-13T10:39:01;94125.00;;;37.79;29.11
11682;BME280;5897;42.640;23.310;2023-07-13T10:41:32;94119.59;;;37.93;27.21
11682;BME280;5897;42.640;23.310;2023-07-13T10:44:00;94121.69;;;38.23;26.95
11682;BME280;5897;42.640;23.310;2023-07-13T10:46:29;94112.63;;;38.24;24.95
11682;BME280;5897;42.640;23.310;2023-07-13T10:48:58;94106.56;;;38.49;24.00
11682;BME280;5897;42.640;23.310;2023-07-13T10:51:28;94103.50;;;38.56;23.30
11682;BME280;5897;42.640;23.310;2023-07-13T10:54:16;94103.44;;;38.66;22.07
11682;BME280;5897;42.640;23.310;2023-07-13T10:56:44;94093.06;;;38.59;21.89
11682;BME280;5897;42.640;23.310;2023-07-13T10:59:14;94097.56;;;38.73;22.44
11682;BME280;5897;42.640;23.310;2023-07-13T11:01:55;94086.09;;;38.39;21.89
11682;BME280;5897;42.640;23.310;2023-07-13T11:04:23;94090.81;;;38.67;22.42
11682;BME280;5897;42.640;23.310;2023-07-13T11:06:53;94073.59;;;38.63;21.04
11682;BME280;5897;42.640;23.310;2023-07-13T11:09:36;94071.31;;;38.50;21.94
11682;BME280;5897;42.640;23.310;2023-07-13T11:12:09;94066.47;;;38.62;22.08
11682;BME280;5897;42.640;23.310;2023-07-13T11:14:43;94068.22;;;38.67;22.47
11682;BME280;5897;42.640;23.310;2023-07-13T11:17:36;94059.91;;;38.80;21.54
11682;BME280;5897;42.640;23.310;2023-07-13T11:20:21;94056.22;;;39.10;20.46
11682;BME280;5897;42.640;23.310;2023-07-13T11:22:50;94051.13;;;39.30;21.48
11682;BME280;5897;42.640;23.310;2023-07-13T11:25:26;94058.34;;;39.33;21.39
11682;BME280;5897;42.640;23.310;2023-07-13T11:28:06;94054.81;;;39.55;22.15
11682;BME280;5897;42.640;23.310;2023-07-13T11:30:37;94060.13;;;39.84;21.71
11682;BME280;5897;42.640;23.310;2023-07-13T11:33:13;94052.13;;;40.15;20.23
11682;BME280;5897;42.640;23.310;2023-07-13T11:35:46;94053.00;;;40.17;20.14
11682;BME280;5897;42.640;23.310;2023-07-13T11:38:17;94050.03;;;40.04;21.41
11682;BME280;5897;42.640;23.310;2023-07-13T11:40:48;94043.69;;;40.40;20.89
11682;BME280;5897;42.640;23.310;2023-07-13T11:43:16;94049.09;;;40.59;20.79
11682;BME280;5897;42.640;23.310;2023-07-13T11:45:44;94049.72;;;40.82;21.17
11682;BME280;5897;42.640;23.310;2023-07-13T11:48:22;94037.09;;;40.72;19.86
11682;BME280;5897;42.640;23.310;2023-07-13T11:50:55;94025.78;;;40.60;21.71
11682;BME280;5897;42.640;23.310;2023-07-13T11:53:26;94036.00;;;40.65;21.70
11682;BME280;5897;42.640;23.310;2023-07-13T11:55:55;94028.34;;;40.68;20.54
11682;BME280;5897;42.640;23.310;2023-07-13T11:58:24;94026.28;;;39.97;20.94
11682;BME280;5897;42.640;23.310;2023-07-13T12:00:55;94021.66;;;40.38;20.77
11682;BME280;5897;42.640;23.310;2023-07-13T12:03:25;94018.41;;;40.55;20.40
11682;BME280;5897;42.640;23.310;2023-07-13T12:05:56;94015.38;;;40.76;21.35
11682;BME280;5897;42.640;23.310;2023-07-13T12:08:24;94019.59;;;40.75;21.23
11682;BME280;5897;42.640;23.310;2023-07-13T12:10:59;94003.53;;;40.80;21.03
11682;BME280;5897;42.640;23.310;2023-07-13T12:13:27;94015.44;;;40.65;20.82
11682;BME280;5897;42.640;23.310;2023-07-13T12:15:56;94017.63;;;40.66;20.27
11682;BME280;5897;42.640;23.310;2023-07-13T12:18:28;94019.31;;;40.83;20.66
11682;BME280;5897;42.640;23.310;2023-07-13T12:20:57;94008.28;;;41.14;22.05
11682;BME280;5897;42.640;23.310;2023-07-13T12:23:29;93998.94;;;41.36;21.47
11682;BME280;5897;42.640;23.310;2023-07-13T12:25:59;93998.16;;;41.36;20.86
11682;BME280;5897;42.640;23.310;2023-07-13T12:28:32;93996.00;;;41.48;20.41
11682;BME280;5897;42.640;23.310;2023-07-13T12:31:00;93992.09;;;41.55;20.74
11682;BME280;5897;42.640;23.310;2023-07-13T12:33:29;93989.72;;;41.63;20.04
11682;BME280;5897;42.640;23.310;2023-07-13T12:36:00;93988.47;;;41.52;20.58
11682;BME280;5897;42.640;23.310;2023-07-13T12:38:28;93983.81;;;41.45;20.23
11682;BME280;5897;42.640;23.310;2023-07-13T12:40:58;93989.25;;;40.78;20.74
11682;BME280;5897;42.640;23.310;2023-07-13T12:43:25;93986.97;;;40.38;20.74
11682;BME280;5897;42.640;23.310;2023-07-13T12:45:57;93977.78;;;40.51;21.37
11682;BME280;5897;42.640;23.310;2023-07-13T12:48:25;93977.13;;;40.64;21.78
11682;BME280;5897;42.640;23.310;2023-07-13T12:50:54;93976.06;;;40.21;20.96
11682;BME280;5897;42.640;23.310;2023-07-13T12:53:23;93980.84;;;40.07;21.48
11682;BME280;5897;42.640;23.310;2023-07-13T12:55:53;93971.94;;;40.35;21.48
11682;BME280;5897;42.640;23.310;2023-07-13T12:58:25;93971.88;;;40.47;21.17
11682;BME280;5897;42.640;23.310;2023-07-13T13:00:57;93966.81;;;40.82;21.75
11682;BME280;5897;42.640;23.310;2023-07-13T13:03:29;93956.63;;;41.02;22.28
11682;BME280;5897;42.640;23.310;2023-07-13T13:05:59;93958.72;;;41.01;20.88
11682;BME280;5897;42.640;23.310;2023-07-13T13:08:28;93956.38;;;40.98;21.77
11682;BME280;5897;42.640;23.310;2023-07-13T13:10:55;93954.75;;;41.20;21.03
11682;BME280;5897;42.640;23.310;2023-07-13T13:13:23;93944.38;;;41.24;21.31
11682;BME280;5897;42.640;23.310;2023-07-13T13:15:53;93949.53;;;41.28;20.85
11682;BME280;5897;42.640;23.310;2023-07-13T13:18:21;93947.63;;;41.32;20.92
11682;BME280;5897;42.640;23.310;2023-07-13T13:20:51;93938.38;;;41.32;20.44
11682;BME280;5897;42.640;23.310;2023-07-13T13:23:19;93945.25;;;41.40;20.00
11682;BME280;5897;42.640;23.310;2023-07-13T13:25:49;93935.75;;;41.36;20.57